Time;durP1;ratioP1;P1;durP2;ratioP2;P2;SDS_P1;SDS_P2;PMS_P1;PMS_P2;Temp;Humidity;BMP_temperature;BMP_pressure;BME280_temperature;BME280_humidity;BME280_pressure;Samples;Min_cycle;Max_cycle;Signal;HPM_P1;HPM_P2
2023/11/16 00:00:31;;;;;;;4.95;1.48;;;6.30;99.90;;;;;;5022495;28;20203;-94
2023/11/16 00:02:58;;;;;;;2.35;1.80;;;6.40;99.90;;;;;;5007416;28;20198;-92
2023/11/16 00:05:26;;;;;;;3.53;1.58;;;6.20;99.90;;;;;;5034173;28;20183;-93
2023/11/16 00:07:59;;;;;;;3.75;2.00;;;6.20;99.90;;;;;;5024218;28;20259;-93
2023/11/16 00:10:27;;;;;;;2.70;1.60;;;6.10;99.90;;;;;;5022681;28;20322;-93
2023/11/16 00:12:55;;;;;;;3.55;1.40;;;6.10;99.90;;;;;;5002593;28;20207;-93
2023/11/16 00:15:22;;;;;;;2.80;1.52;;;6.00;99.90;;;;;;4999340;28;20211;-93
2023/11/16 00:17:49;;;;;;;4.40;1.70;;;5.90;99.90;;;;;;5018303;28;20203;-92
2023/11/16 00:20:16;;;;;;;2.50;1.67;;;5.90;99.90;;;;;;4986105;28;20207;-93
2023/11/16 00:22:43;;;;;;;2.80;1.60;;;5.80;99.90;;;;;;5002407;28;20242;-92
2023/11/16 00:25:12;;;;;;;5.05;1.48;;;5.80;99.90;;;;;;5024188;28;20214;-93
2023/11/16 00:27:40;;;;;;;4.40;1.60;;;5.80;99.90;;;;;;5004366;28;20203;-93
2023/11/16 00:32:49;;;;;;;4.22;1.42;;;5.80;99.90;;;;;;5002179;28;20202;-94
2023/11/16 00:35:15;;;;;;;3.22;1.42;;;5.80;99.90;;;;;;5021530;28;20266;-94
2023/11/16 00:37:43;;;;;;;4.45;1.65;;;5.80;99.90;;;;;;5020607;28;20203;-93
2023/11/16 00:40:13;;;;;;;2.20;1.10;;;5.80;99.90;;;;;;4997231;28;20203;-93
2023/11/16 00:42:40;;;;;;;1.77;1.40;;;5.80;99.90;;;;;;5014954;28;20210;-93
2023/11/16 00:45:08;;;;;;;4.30;1.45;;;5.70;99.90;;;;;;5022775;28;20209;-93
2023/11/16 00:47:35;;;;;;;3.70;1.58;;;5.70;99.90;;;;;;5021993;28;20814;-94
2023/11/16 00:50:05;;;;;;;4.20;1.50;;;5.60;99.90;;;;;;5022446;28;20226;-91
2023/11/16 00:52:33;;;;;;;2.67;1.40;;;5.60;99.90;;;;;;5010321;28;20219;-93
2023/11/16 00:55:01;;;;;;;5.10;1.73;;;5.50;99.90;;;;;;5002536;28;20246;-92
2023/11/16 00:57:34;;;;;;;6.63;1.60;;;5.50;99.90;;;;;;5018023;28;20200;-93
2023/11/16 01:00:02;;;;;;;3.38;1.75;;;5.40;99.90;;;;;;5017893;28;20199;-93
2023/11/16 01:02:30;;;;;;;3.03;1.40;;;5.40;99.90;;;;;;5025691;28;20204;-93
2023/11/16 01:04:57;;;;;;;3.73;1.50;;;5.40;99.90;;;;;;4991205;28;20239;-93
2023/11/16 01:07:24;;;;;;;3.43;1.57;;;5.40;99.90;;;;;;5008718;28;20197;-94
2023/11/16 01:09:51;;;;;;;3.23;1.30;;;5.40;99.90;;;;;;4998654;28;20199;-94
2023/11/16 01:12:18;;;;;;;6.07;1.80;;;5.40;99.90;;;;;;5020866;28;20263;-93
2023/11/16 01:14:52;;;;;;;3.27;1.37;;;5.50;99.90;;;;;;5003640;28;20196;-93
2023/11/16 01:17:22;;;;;;;2.37;1.33;;;5.50;99.90;;;;;;5019312;28;20196;-94
2023/11/16 01:19:56;;;;;;;4.77;1.60;;;5.60;99.90;;;;;;5022255;28;20203;-93
2023/11/16 01:22:26;;;;;;;3.73;1.40;;;5.70;99.90;;;;;;5007125;28;20239;-93
2023/11/16 01:24:54;;;;;;;4.60;1.80;;;5.80;99.90;;;;;;5031542;28;20203;-93
2023/11/16 01:27:26;;;;;;;4.45;1.40;;;6.00;99.90;;;;;;5009797;28;20267;-94
2023/11/16 01:29:55;;;;;;;5.33;1.50;;;6.20;99.90;;;;;;5009228;28;20605;-94
2023/11/16 01:32:24;;;;;;;2.83;1.30;;;6.30;99.90;;;;;;5022765;28;20231;-93
2023/11/16 01:34:51;;;;;;;4.60;1.45;;;6.50;99.90;;;;;;5005503;28;20211;-94
2023/11/16 01:37:18;;;;;;;3.38;1.42;;;6.50;99.90;;;;;;5017836;28;20626;-93
2023/11/16 01:39:45;;;;;;;2.50;1.30;;;6.60;99.90;;;;;;4992131;28;20212;-93
2023/11/16 01:42:11;;;;;;;4.72;1.80;;;6.70;99.90;;;;;;5023343;28;20214;-93
2023/11/16 01:44:40;;;;;;;2.60;1.38;;;6.70;99.90;;;;;;5024904;28;20199;-93
2023/11/16 01:47:14;;;;;;;3.10;1.20;;;6.80;99.70;;;;;;4991249;28;20263;-93
2023/11/16 01:49:43;;;;;;;3.17;1.48;;;6.80;99.50;;;;;;5002655;28;20454;-94
2023/11/16 01:52:28;;;;;;;1.85;1.15;;;6.80;99.70;;;;;;5033677;28;20246;-94
2023/11/16 01:54:55;;;;;;;3.55;1.70;;;6.80;99.60;;;;;;5007350;28;20199;-92
2023/11/16 01:57:25;;;;;;;3.00;1.30;;;6.70;99.50;;;;;;5028472;28;20191;-94
2023/11/16 01:59:52;;;;;;;2.30;1.25;;;6.70;99.40;;;;;;5014010;28;20211;-93
2023/11/16 02:05:25;;;;;;;3.38;1.50;;;6.60;99.40;;;;;;5018117;28;20249;-93
2023/11/16 02:10:34;;;;;;;7.47;1.40;;;6.60;99.50;;;;;;5003736;28;20239;-94
2023/11/16 02:13:02;;;;;;;3.70;1.40;;;6.50;99.70;;;;;;4991981;28;20210;-93
2023/11/16 02:18:16;;;;;;;2.90;1.20;;;6.40;99.90;;;;;;5027373;28;20226;-94
2023/11/16 02:20:47;;;;;;;3.92;1.25;;;6.30;99.90;;;;;;5007718;28;20207;-93
2023/11/16 02:23:17;;;;;;;3.03;1.40;;;6.30;99.90;;;;;;5004323;28;20202;-93
2023/11/16 02:25:45;;;;;;;3.63;1.38;;;6.30;99.90;;;;;;5004206;28;20687;-93
2023/11/16 02:28:13;;;;;;;6.07;1.42;;;6.40;99.90;;;;;;5019332;28;20209;-93
2023/11/16 02:30:40;;;;;;;3.13;1.17;;;6.40;99.90;;;;;;5032563;28;20205;-94
2023/11/16 02:33:07;;;;;;;3.00;1.40;;;6.40;99.60;;;;;;5022401;28;20210;-93
2023/11/16 02:35:34;;;;;;;4.47;1.35;;;6.40;99.80;;;;;;4994235;28;20236;-93
2023/11/16 02:40:44;;;;;;;5.68;1.20;;;6.30;99.90;;;;;;5017963;28;20633;-93
2023/11/16 02:43:12;;;;;;;5.60;1.30;;;6.30;99.90;;;;;;5009116;28;20215;-93
2023/11/16 02:45:38;;;;;;;3.63;1.38;;;6.20;99.90;;;;;;5022675;28;20564;-93
2023/11/16 02:48:07;;;;;;;3.50;1.42;;;6.20;99.90;;;;;;5024948;28;20294;-93
2023/11/16 02:50:35;;;;;;;5.72;1.40;;;6.20;99.90;;;;;;5023155;28;20503;-93
2023/11/16 02:53:03;;;;;;;3.28;1.35;;;6.20;99.90;;;;;;5025575;28;20213;-94
2023/11/16 02:55:30;;;;;;;3.97;1.40;;;6.20;99.90;;;;;;5024740;28;20227;-93
2023/11/16 02:57:58;;;;;;;2.53;1.45;;;6.20;99.90;;;;;;5029418;28;20289;-94
2023/11/16 03:00:26;;;;;;;2.63;1.45;;;6.10;99.90;;;;;;4994155;28;20196;-93
2023/11/16 03:02:53;;;;;;;1.88;1.40;;;6.00;99.90;;;;;;5025201;28;20230;-92
2023/11/16 03:05:24;;;;;;;4.35;1.50;;;5.90;99.90;;;;;;5019864;28;20196;-94
2023/11/16 03:07:53;;;;;;;3.58;1.63;;;5.80;99.90;;;;;;5022645;28;20234;-93
2023/11/16 03:10:21;;;;;;;1.92;1.30;;;5.70;99.90;;;;;;5009941;28;20204;-93
2023/11/16 03:12:49;;;;;;;3.38;1.33;;;5.70;99.90;;;;;;5000864;28;20282;-93
2023/11/16 03:17:59;;;;;;;3.28;1.48;;;5.70;99.90;;;;;;5024347;28;20207;-93
2023/11/16 03:20:27;;;;;;;4.22;1.38;;;5.60;99.90;;;;;;5030502;28;20279;-93
2023/11/16 03:22:57;;;;;;;4.80;2.33;;;5.50;99.90;;;;;;4999300;28;20336;-93
2023/11/16 03:25:26;;;;;;;3.53;1.40;;;5.50;99.90;;;;;;5020185;28;20199;-93
2023/11/16 03:27:53;;;;;;;2.20;1.30;;;5.50;99.90;;;;;;5022740;28;20203;-92
2023/11/16 03:30:22;;;;;;;4.00;1.30;;;5.40;99.90;;;;;;5025215;28;20205;-93
2023/11/16 03:32:50;;;;;;;4.00;1.77;;;5.40;99.90;;;;;;5015550;28;20204;-94
2023/11/16 03:35:17;;;;;;;5.90;1.43;;;5.30;99.90;;;;;;5005741;28;20951;-94
2023/11/16 03:37:44;;;;;;;2.70;1.37;;;5.30;99.90;;;;;;5002030;28;20218;-94
2023/11/16 03:40:13;;;;;;;3.03;1.55;;;5.30;99.90;;;;;;5002957;28;20290;-92
2023/11/16 03:42:40;;;;;;;1.70;1.30;;;5.30;99.90;;;;;;5000100;28;20199;-93
2023/11/16 03:45:10;;;;;;;2.07;1.37;;;5.30;99.90;;;;;;5005501;28;20598;-93
2023/11/16 03:50:20;;;;;;;3.33;1.60;;;5.20;99.90;;;;;;5017421;28;20207;-93
2023/11/16 03:52:47;;;;;;;5.27;1.77;;;5.10;99.90;;;;;;5009624;28;20603;-93
2023/11/16 03:55:16;;;;;;;5.17;1.20;;;5.10;99.90;;;;;;5021111;28;20251;-94
2023/11/16 03:57:43;;;;;;;4.57;1.40;;;5.00;99.90;;;;;;5003640;28;20205;-93
2023/11/16 04:00:11;;;;;;;6.40;1.63;;;5.10;99.90;;;;;;5003074;28;20207;-93
2023/11/16 04:02:42;;;;;;;2.73;1.83;;;5.10;99.90;;;;;;4989427;28;20199;-93
2023/11/16 04:05:09;;;;;;;3.23;1.30;;;5.10;99.90;;;;;;5021932;28;20242;-92
2023/11/16 04:07:36;;;;;;;2.90;1.50;;;5.10;99.90;;;;;;5007659;28;20210;-93
2023/11/16 04:12:46;;;;;;;3.93;1.40;;;5.00;99.90;;;;;;5016431;28;20207;-94
2023/11/16 04:15:13;;;;;;;5.40;1.53;;;5.00;99.90;;;;;;5019744;28;20206;-94
2023/11/16 04:20:44;;;;;;;3.10;1.60;;;4.90;99.90;;;;;;5017580;28;20226;-93
2023/11/16 04:23:12;;;;;;;3.47;1.83;;;5.00;99.90;;;;;;5005959;28;20571;-93
2023/11/16 04:25:40;;;;;;;4.83;1.90;;;5.00;99.90;;;;;;4998278;28;20206;-93
2023/11/16 04:28:29;;;;;;;5.70;1.97;;;5.10;99.90;;;;;;5008398;28;20218;-94
2023/11/16 04:30:57;;;;;;;4.50;2.10;;;5.10;99.90;;;;;;5017598;28;20211;-93
2023/11/16 04:36:28;;;;;;;2.40;1.40;;;5.00;99.90;;;;;;5030512;28;20227;-93
2023/11/16 04:38:57;;;;;;;3.80;1.67;;;5.00;99.90;;;;;;5003650;28;20270;-92
2023/11/16 04:41:45;;;;;;;2.53;1.30;;;4.90;99.90;;;;;;5008379;28;20306;-92
2023/11/16 04:44:12;;;;;;;4.03;1.97;;;4.80;99.90;;;;;;5014234;28;20619;-93
2023/11/16 04:46:46;;;;;;;3.53;1.50;;;4.70;99.90;;;;;;4997693;28;20191;-93
2023/11/16 04:51:59;;;;;;;2.40;1.60;;;4.60;99.90;;;;;;5012458;28;20220;-92
2023/11/16 04:54:27;;;;;;;4.67;1.63;;;4.60;99.90;;;;;;5002129;28;20206;-93
2023/11/16 04:56:53;;;;;;;4.47;1.87;;;4.60;99.90;;;;;;5023096;28;20283;-93
2023/11/16 04:59:20;;;;;;;4.57;1.77;;;4.60;99.90;;;;;;5127972;23;20230;-93
2023/11/16 05:01:47;;;;;;;2.30;1.30;;;4.50;99.90;;;;;;5036911;28;20276;-91
2023/11/16 05:04:18;;;;;;;5.03;1.60;;;4.50;99.90;;;;;;5046287;28;20198;-93
2023/11/16 05:06:46;;;;;;;2.60;1.50;;;4.60;99.90;;;;;;5067329;28;20233;-94
2023/11/16 05:09:14;;;;;;;4.70;1.73;;;4.60;99.90;;;;;;5043725;28;20194;-92
2023/11/16 05:11:40;;;;;;;2.90;1.47;;;4.60;99.90;;;;;;5046653;28;20214;-92
2023/11/16 05:14:07;;;;;;;2.60;1.60;;;4.70;99.90;;;;;;5048904;28;20199;-90
2023/11/16 05:16:35;;;;;;;3.70;1.90;;;4.70;99.90;;;;;;5066051;28;20224;-92
2023/11/16 05:19:02;;;;;;;3.73;1.77;;;4.70;99.90;;;;;;5066360;28;20213;-90
2023/11/16 05:21:32;;;;;;;4.23;1.80;;;4.70;99.90;;;;;;5057571;28;20208;-91
2023/11/16 05:23:58;;;;;;;3.33;1.83;;;4.60;99.90;;;;;;5038415;28;20218;-91
2023/11/16 05:26:25;;;;;;;2.93;1.67;;;4.60;99.90;;;;;;5291945;23;20228;-95
2023/11/16 05:31:33;;;;;;;3.23;1.50;;;4.50;99.90;;;;;;5044658;28;20260;-89
2023/11/16 05:34:00;;;;;;;3.73;1.63;;;4.40;99.90;;;;;;5038007;28;20190;-89
2023/11/16 05:36:29;;;;;;;2.90;1.70;;;4.40;99.90;;;;;;5033680;28;20222;-89
2023/11/16 05:38:58;;;;;;;2.73;1.70;;;4.30;99.90;;;;;;5037990;28;20195;-89
2023/11/16 05:41:26;;;;;;;4.87;1.60;;;4.20;99.90;;;;;;5030077;28;20209;-88
2023/11/16 05:43:53;;;;;;;3.70;1.80;;;4.20;99.90;;;;;;5038604;28;20202;-91
2023/11/16 05:46:30;;;;;;;;;;;;;;;;;;;;;
2023/11/16 05:48:58;;;;;;;4.90;1.47;;;4.00;99.90;;;;;;5250191;23;20244;-88
2023/11/16 05:51:25;;;;;;;4.70;1.90;;;4.00;99.90;;;;;;5016816;28;20223;-89
2023/11/16 05:54:14;;;;;;;2.77;1.67;;;3.90;99.90;;;;;;5006722;28;20237;-89
2023/11/16 05:56:45;;;;;;;5.83;1.80;;;3.90;99.90;;;;;;5031260;28;20285;-90
2023/11/16 05:59:12;;;;;;;3.17;1.77;;;4.00;99.90;;;;;;5030246;28;20203;-88
2023/11/16 06:01:44;;;;;;;5.03;1.50;;;4.00;99.90;;;;;;5029045;28;20203;-88
2023/11/16 06:04:12;;;;;;;3.47;1.77;;;4.10;99.90;;;;;;5019743;28;20278;-91
2023/11/16 06:06:40;;;;;;;3.90;1.80;;;4.00;99.90;;;;;;5035115;28;20203;-89
2023/11/16 06:09:10;;;;;;;5.93;2.17;;;4.10;99.90;;;;;;5146518;23;20234;-91
2023/11/16 06:14:14;;;;;;;4.17;1.93;;;4.00;99.90;;;;;;5808552;23;20246;-91
2023/11/16 06:40:02;;;;;;;5.93;2.07;;;3.90;99.90;;;;;;5032130;28;20222;-91
2023/11/16 06:42:28;;;;;;;3.33;1.93;;;3.90;99.90;;;;;;5025278;28;20203;-88
2023/11/16 06:44:55;;;;;;;5.03;1.90;;;3.90;99.90;;;;;;5032298;28;20209;-90
2023/11/16 06:47:22;;;;;;;6.47;2.30;;;3.90;99.90;;;;;;5032553;28;20207;-89
2023/11/16 06:49:50;;;;;;;3.60;2.03;;;3.90;99.90;;;;;;5028780;28;20599;-89
2023/11/16 06:52:19;;;;;;;3.90;2.10;;;4.00;99.90;;;;;;5047856;28;20230;-89
2023/11/16 06:54:46;;;;;;;4.40;1.80;;;4.20;99.90;;;;;;5046918;28;20208;-89
2023/11/16 06:57:15;;;;;;;5.60;2.10;;;4.20;99.90;;;;;;5048446;28;20682;-89
2023/11/16 06:59:42;;;;;;;3.80;2.13;;;4.20;99.90;;;;;;5048685;28;20208;-89
2023/11/16 07:02:09;;;;;;;3.77;2.10;;;4.20;99.90;;;;;;5031455;28;20198;-89
2023/11/16 07:04:36;;;;;;;5.47;2.00;;;4.30;99.90;;;;;;5010045;28;20205;-89
2023/11/16 07:07:04;;;;;;;4.20;1.90;;;4.30;99.90;;;;;;5046677;28;20205;-89
2023/11/16 07:09:31;;;;;;;4.97;1.93;;;4.30;99.90;;;;;;5045894;28;20210;-88
2023/11/16 07:11:59;;;;;;;3.60;1.93;;;4.30;99.90;;;;;;5046350;28;20194;-89
2023/11/16 07:14:29;;;;;;;2.90;1.60;;;4.30;99.90;;;;;;5045373;28;20208;-89
2023/11/16 07:16:55;;;;;;;3.83;1.83;;;4.40;99.90;;;;;;5044089;28;20375;-89
2023/11/16 07:19:22;;;;;;;3.37;1.53;;;4.60;99.90;;;;;;5042425;28;20576;-88
2023/11/16 07:21:49;;;;;;;7.70;1.70;;;4.70;99.90;;;;;;5047888;28;20205;-89
2023/11/16 07:24:17;;;;;;;4.77;1.67;;;4.70;99.90;;;;;;5025112;28;20348;-89
2023/11/16 07:26:44;;;;;;;6.80;1.80;;;4.80;99.90;;;;;;5040263;28;20573;-89
2023/11/16 07:29:11;;;;;;;3.60;1.60;;;4.90;99.90;;;;;;5029034;28;20198;-89
2023/11/16 07:31:41;;;;;;;2.70;1.60;;;5.20;99.90;;;;;;5031763;28;20198;-88
2023/11/16 07:34:09;;;;;;;1.77;1.40;;;5.50;99.90;;;;;;5029511;28;20209;-89
2023/11/16 07:36:37;;;;;;;3.57;1.57;;;5.70;99.10;;;;;;5047372;28;20207;-88
2023/11/16 07:39:04;;;;;;;2.40;1.50;;;5.70;98.90;;;;;;5051486;28;20255;-89
2023/11/16 07:41:31;;;;;;;3.17;1.40;;;5.90;99.20;;;;;;5031094;28;20609;-89
2023/11/16 07:43:58;;;;;;;7.03;1.50;;;6.10;98.80;;;;;;5047348;28;20197;-91
2023/11/16 07:46:25;;;;;;;5.22;1.33;;;6.30;98.40;;;;;;5042700;28;20203;-91
2023/11/16 07:48:53;;;;;;;2.88;1.35;;;6.40;98.00;;;;;;5031048;28;20202;-91
2023/11/16 07:51:20;;;;;;;3.13;1.48;;;6.50;98.30;;;;;;5016503;28;20217;-91
2023/11/16 07:53:53;;;;;;;1.45;1.20;;;6.50;97.90;;;;;;5044790;28;20539;-90
2023/11/16 07:56:19;;;;;;;1.38;1.20;;;6.60;97.40;;;;;;5047168;28;20200;-91
2023/11/16 07:58:49;;;;;;;1.77;1.33;;;6.60;97.60;;;;;;5039446;28;20640;-91
2023/11/16 08:01:21;;;;;;;4.32;1.63;;;6.70;97.50;;;;;;5041568;28;20200;-91
2023/11/16 08:04:04;;;;;;;3.60;1.40;;;6.80;97.60;;;;;;5043160;28;20205;-91
2023/11/16 08:09:13;;;;;;;3.25;1.60;;;7.00;96.40;;;;;;5042920;28;20194;-91
2023/11/16 08:11:42;;;;;;;3.60;1.05;;;7.00;95.50;;;;;;5010966;28;20256;-91
2023/11/16 08:14:09;;;;;;;2.88;1.50;;;7.20;95.50;;;;;;5029020;28;20202;-91
2023/11/16 08:16:36;;;;;;;2.22;1.10;;;7.30;94.90;;;;;;5031426;28;20606;-92
2023/11/16 08:19:05;;;;;;;3.20;1.42;;;7.30;94.10;;;;;;5033932;28;20204;-91
2023/11/16 08:21:33;;;;;;;2.88;1.30;;;7.40;94.20;;;;;;5049075;28;20205;-91
2023/11/16 08:24:00;;;;;;;5.20;1.35;;;7.50;93.60;;;;;;5032724;28;20205;-90
2023/11/16 08:26:26;;;;;;;2.30;1.30;;;7.60;94.70;;;;;;5050134;28;20263;-91
2023/11/16 08:28:53;;;;;;;1.30;1.13;;;7.60;94.80;;;;;;5058304;28;20227;-91
2023/11/16 08:31:20;;;;;;;2.13;1.40;;;7.70;93.60;;;;;;5064487;28;20201;-91
2023/11/16 08:33:58;;;;;;;2.65;1.40;;;7.80;93.10;;;;;;5067601;28;20269;-92
2023/11/16 08:36:28;;;;;;;2.20;1.30;;;7.90;92.50;;;;;;5013610;28;20202;-91
2023/11/16 08:38:55;;;;;;;3.67;1.45;;;7.80;92.80;;;;;;5026653;28;20757;-91
2023/11/16 08:41:22;;;;;;;6.75;1.67;;;8.00;92.50;;;;;;5032015;28;20730;-92
2023/11/16 08:43:51;;;;;;;4.55;1.45;;;8.00;92.60;;;;;;5031664;28;20210;-92
2023/11/16 08:49:00;;;;;;;5.82;1.63;;;8.10;92.50;;;;;;5024745;28;20289;-90
2023/11/16 08:51:28;;;;;;;4.50;1.60;;;8.20;92.70;;;;;;5017376;28;20228;-89
2023/11/16 08:53:56;;;;;;;2.47;1.30;;;8.30;91.20;;;;;;5027042;28;20209;-91
2023/11/16 08:56:26;;;;;;;1.65;1.10;;;8.40;91.20;;;;;;5032373;28;20675;-90
2023/11/16 08:58:54;;;;;;;2.83;1.30;;;8.40;90.40;;;;;;5049203;28;20213;-89
2023/11/16 09:01:21;;;;;;;1.80;1.20;;;8.20;91.10;;;;;;5045121;28;20201;-91
2023/11/16 09:03:49;;;;;;;1.92;1.20;;;8.10;91.90;;;;;;5046026;28;20555;-90
2023/11/16 09:06:18;;;;;;;2.20;1.30;;;8.10;91.50;;;;;;5043571;28;20260;-91
2023/11/16 09:08:49;;;;;;;3.50;1.35;;;8.20;91.20;;;;;;5046970;28;20201;-91
2023/11/16 09:11:17;;;;;;;2.78;1.10;;;8.10;91.90;;;;;;5046745;28;20202;-90
2023/11/16 09:13:45;;;;;;;2.35;1.23;;;8.20;91.80;;;;;;5006987;28;20202;-90
2023/11/16 09:16:12;;;;;;;1.80;1.10;;;8.40;91.00;;;;;;5046190;28;20673;-91
2023/11/16 09:18:41;;;;;;;4.00;1.50;;;8.40;90.30;;;;;;5025008;28;20230;-92
2023/11/16 09:21:14;;;;;;;2.10;1.30;;;8.40;91.70;;;;;;5035417;28;20210;-92
2023/11/16 09:23:41;;;;;;;3.05;1.13;;;8.40;91.30;;;;;;5038764;28;20273;-92
2023/11/16 09:29:19;;;;;;;2.28;1.30;;;8.70;91.00;;;;;;5036592;28;20209;-92
2023/11/16 09:31:46;;;;;;;5.60;1.48;;;9.00;89.80;;;;;;5038003;28;20666;-92
2023/11/16 09:34:16;;;;;;;3.17;1.45;;;9.00;89.30;;;;;;5037492;28;20194;-92
2023/11/16 09:36:44;;;;;;;3.92;1.50;;;9.00;87.60;;;;;;5034401;28;20198;-92
2023/11/16 09:39:11;;;;;;;3.17;1.20;;;9.00;90.50;;;;;;5027903;28;20301;-92
2023/11/16 09:44:58;;;;;;;4.93;1.45;;;9.20;90.50;;;;;;5052716;28;20193;-92
2023/11/16 09:47:29;;;;;;;4.85;1.48;;;9.30;84.30;;;;;;5032318;28;20228;-92
2023/11/16 09:50:00;;;;;;;2.20;1.08;;;9.20;84.30;;;;;;5017565;28;20202;-92
2023/11/16 09:52:51;;;;;;;5.57;1.23;;;9.20;86.80;;;;;;5042722;28;20649;-92
2023/11/16 09:55:40;;;;;;;4.50;1.25;;;9.40;88.90;;;;;;5040039;28;20201;-92
2023/11/16 10:01:24;;;;;;;4.97;1.40;;;9.60;86.10;;;;;;5025535;28;20291;-92
2023/11/16 10:04:12;;;;;;;2.97;1.17;;;9.70;85.90;;;;;;5010865;28;20195;-92
2023/11/16 10:07:04;;;;;;;4.72;1.27;;;9.80;83.50;;;;;;5035472;28;20759;-91
2023/11/16 10:09:41;;;;;;;1.05;0.90;;;9.80;80.60;;;;;;5037360;28;20303;-92
2023/11/16 10:12:16;;;;;;;3.38;1.10;;;9.90;82.70;;;;;;5021546;28;20211;-92
2023/11/16 10:20:39;;;;;;;2.95;1.27;;;10.40;68.00;;;;;;5047625;28;20205;-92
2023/11/16 10:23:09;;;;;;;2.25;1.20;;;10.50;67.70;;;;;;5053237;28;20304;-92
2023/11/16 10:31:20;;;;;;;2.88;0.95;;;10.60;62.40;;;;;;5039098;28;20202;-92
2023/11/16 10:34:07;;;;;;;2.58;1.30;;;10.90;55.60;;;;;;5024326;28;20194;-92
2023/11/16 10:36:37;;;;;;;2.97;1.30;;;10.90;53.30;;;;;;5023402;28;20209;-92
2023/11/16 10:39:24;;;;;;;2.78;1.30;;;10.70;60.90;;;;;;5034077;28;20232;-92
2023/11/16 10:41:53;;;;;;;4.28;1.20;;;10.60;61.60;;;;;;5031606;28;20285;-92
2023/11/16 10:44:23;;;;;;;4.20;1.25;;;10.50;60.50;;;;;;5049425;28;20259;-92
2023/11/16 10:46:54;;;;;;;2.28;1.20;;;10.80;57.20;;;;;;5054005;28;20243;-92
2023/11/16 10:49:39;;;;;;;4.82;1.30;;;10.90;53.80;;;;;;5037643;28;20209;-92
2023/11/16 10:52:07;;;;;;;1.83;1.20;;;11.00;52.90;;;;;;5027275;28;20217;-92
2023/11/16 10:54:40;;;;;;;4.57;1.67;;;11.00;54.30;;;;;;5044362;28;20198;-93
2023/11/16 10:57:07;;;;;;;1.92;1.13;;;10.80;59.40;;;;;;5042787;28;20773;-92
2023/11/16 10:59:35;;;;;;;1.77;1.20;;;10.80;55.50;;;;;;5028325;28;20230;-92
2023/11/16 11:04:53;;;;;;;1.23;1.02;;;10.80;54.40;;;;;;5046251;28;20589;-92
2023/11/16 11:07:23;;;;;;;6.47;1.25;;;10.80;63.60;;;;;;5053020;28;20202;-92
2023/11/16 11:20:52;;;;;;;1.35;0.80;;;10.50;59.60;;;;;;5028435;28;20237;-92
2023/11/16 11:23:40;;;;;;;2.40;1.20;;;10.50;55.80;;;;;;5041034;28;20209;-93
2023/11/16 11:26:37;;;;;;;1.70;1.00;;;10.60;55.90;;;;;;5032194;28;20213;-92
2023/11/16 11:48:47;;;;;;;2.78;1.42;;;10.80;49.70;;;;;;5052648;28;20254;-92
2023/11/16 11:51:19;;;;;;;2.10;0.98;;;10.80;52.50;;;;;;5050220;28;20293;-92
2023/11/16 11:56:52;;;;;;;3.63;1.40;;;10.80;51.10;;;;;;4990034;28;20264;-92
2023/11/16 12:04:47;;;;;;;4.50;1.30;;;10.50;55.40;;;;;;5016863;28;20295;-92
2023/11/16 12:07:13;;;;;;;2.75;1.20;;;10.40;56.50;;;;;;5044268;28;20198;-92
2023/11/16 12:18:48;;;;;;;2.88;1.20;;;10.30;52.70;;;;;;5019985;28;20250;-94
2023/11/16 12:30:20;;;;;;;4.93;1.75;;;10.20;54.50;;;;;;4959911;28;20237;-93
2023/11/16 12:32:47;;;;;;;4.00;1.58;;;10.10;56.00;;;;;;4922299;29;20202;-93
2023/11/16 12:40:37;;;;;;;3.33;1.33;;;10.10;56.70;;;;;;4968880;28;20207;-94
2023/11/16 12:43:04;;;;;;;4.68;1.75;;;10.00;53.00;;;;;;4999953;28;20661;-94
2023/11/16 12:48:16;;;;;;;3.03;1.40;;;9.90;58.20;;;;;;5051866;28;20589;-93
2023/11/16 12:53:25;;;;;;;10.57;7.82;;;10.00;58.10;;;;;;5050162;28;20253;-94
2023/11/16 13:04:22;;;;;;;4.28;1.60;;;10.10;59.90;;;;;;5035676;28;20681;-93
2023/11/16 13:06:49;;;;;;;2.17;1.27;;;10.20;58.30;;;;;;5032750;28;20208;-93
2023/11/16 13:09:16;;;;;;;4.78;1.35;;;10.40;56.00;;;;;;5032459;28;20202;-93
2023/11/16 13:12:20;;;;;;;4.03;1.60;;;10.40;56.80;;;;;;4986816;28;20208;-94
2023/11/16 13:14:48;;;;;;;2.40;1.40;;;10.50;55.30;;;;;;5003334;28;20206;-93
2023/11/16 13:20:39;;;;;;;6.25;1.65;;;10.30;60.00;;;;;;5049919;28;20248;-93
2023/11/16 13:23:06;;;;;;;4.40;1.58;;;10.20;59.40;;;;;;5048918;28;20192;-94
2023/11/16 13:25:33;;;;;;;3.38;1.45;;;10.10;60.40;;;;;;5059065;28;20190;-93
2023/11/16 13:30:42;;;;;;;3.13;1.40;;;10.20;64.60;;;;;;5031054;28;20608;-93
2023/11/16 13:39:34;;;;;;;4.20;1.60;;;10.30;66.30;;;;;;5011158;28;20239;-93
2023/11/16 13:44:42;;;;;;;4.30;1.70;;;10.40;71.30;;;;;;4977555;28;20204;-92
2023/11/16 13:47:10;;;;;;;3.47;1.63;;;10.40;71.90;;;;;;5015951;28;20416;-94
2023/11/16 13:49:38;;;;;;;4.63;1.48;;;10.40;73.50;;;;;;5016113;28;20269;-93
2023/11/16 13:52:43;;;;;;;4.13;1.50;;;10.10;76.80;;;;;;4991238;28;20751;-94
2023/11/16 13:58:28;;;;;;;3.53;1.70;;;10.00;79.10;;;;;;4887038;29;20242;-93
2023/11/16 14:00:55;;;;;;;2.90;1.60;;;10.00;79.50;;;;;;4889567;28;20208;-93
2023/11/16 14:03:52;;;;;;;2.20;1.40;;;9.90;80.60;;;;;;4983532;28;20208;-94
2023/11/16 14:06:21;;;;;;;3.03;1.40;;;9.80;81.80;;;;;;4999024;28;20203;-93
2023/11/16 14:14:19;;;;;;;3.72;1.67;;;9.70;82.60;;;;;;5018577;28;20227;-94
2023/11/16 14:17:12;;;;;;;3.97;1.60;;;9.60;83.00;;;;;;4949122;28;20207;-94
2023/11/16 14:22:19;;;;;;;4.82;1.65;;;9.40;86.60;;;;;;4989499;28;20261;-94
2023/11/16 14:28:10;;;;;;;3.67;1.63;;;9.10;88.10;;;;;;4942650;28;20205;-95
2023/11/16 14:30:37;;;;;;;3.53;1.80;;;9.00;90.50;;;;;;4957669;28;20236;-95
2023/11/16 14:33:06;;;;;;;1.80;1.50;;;9.10;90.50;;;;;;5004025;28;20190;-95
2023/11/16 14:35:33;;;;;;;4.70;1.70;;;9.00;90.50;;;;;;5064085;28;20213;-95
2023/11/16 14:38:00;;;;;;;7.43;2.30;;;9.00;90.60;;;;;;5055523;28;20289;-95
2023/11/16 14:40:29;;;;;;;4.05;2.05;;;9.00;91.30;;;;;;5072675;28;20234;-95
2023/11/16 14:42:56;;;;;;;5.30;2.10;;;9.00;92.90;;;;;;5041417;28;20225;-95
2023/11/16 14:45:27;;;;;;;3.72;1.80;;;8.90;92.60;;;;;;5032712;28;20213;-95
2023/11/16 14:48:15;;;;;;;6.68;2.45;;;9.00;92.50;;;;;;5065885;28;20202;-94
2023/11/16 14:50:42;;;;;;;3.72;1.98;;;9.20;92.20;;;;;;5048325;28;20201;-90
2023/11/16 14:53:09;;;;;;;2.70;1.60;;;9.20;91.40;;;;;;5052417;28;20241;-91
2023/11/16 14:55:45;;;;;;;2.72;1.60;;;9.20;91.30;;;;;;5037004;28;20205;-91
2023/11/16 14:58:12;;;;;;;6.10;1.70;;;9.10;90.90;;;;;;5054465;28;20226;-90
2023/11/16 15:00:39;;;;;;;2.88;1.50;;;9.10;91.00;;;;;;5034637;28;20633;-91
2023/11/16 15:03:06;;;;;;;3.55;1.52;;;9.10;91.20;;;;;;5039911;28;20272;-91
2023/11/16 15:05:33;;;;;;;7.80;1.90;;;9.10;90.70;;;;;;5067681;28;20212;-92
2023/11/16 15:08:01;;;;;;;2.53;1.65;;;9.00;92.30;;;;;;5055863;28;20725;-91
2023/11/16 15:10:30;;;;;;;6.05;1.88;;;8.90;92.00;;;;;;5030841;28;20655;-91
2023/11/16 15:13:06;;;;;;;3.03;1.60;;;8.90;91.50;;;;;;5017177;28;20198;-91
2023/11/16 15:15:34;;;;;;;3.63;1.50;;;8.80;91.90;;;;;;5045888;28;20251;-92
2023/11/16 15:18:02;;;;;;;3.85;1.90;;;8.80;91.80;;;;;;5058858;28;20208;-95
2023/11/16 15:20:29;;;;;;;3.75;2.55;;;9.10;92.90;;;;;;5031459;28;20217;-95
2023/11/16 15:25:37;;;;;;;8.48;2.88;;;9.00;93.20;;;;;;5151944;23;20287;-93
2023/11/16 15:28:27;;;;;;;4.57;2.50;;;8.80;94.30;;;;;;5004865;28;20204;-93
2023/11/16 15:31:41;;;;;;;5.88;2.40;;;8.70;95.50;;;;;;4984789;28;20217;-93
2023/11/16 15:35:20;;;;;;;8.50;2.47;;;8.60;95.80;;;;;;4972691;28;20201;-94
2023/11/16 15:47:25;;;;;;;6.20;3.00;;;8.30;96.10;;;;;;4983429;28;20272;-92
2023/11/16 15:55:34;;;;;;;6.60;3.40;;;8.30;96.70;;;;;;5019546;28;20210;-91
2023/11/16 15:58:01;;;;;;;6.18;3.20;;;8.50;95.80;;;;;;5021396;28;20230;-91
2023/11/16 16:00:28;;;;;;;5.88;3.28;;;8.60;96.40;;;;;;5023510;28;20229;-91
2023/11/16 16:02:56;;;;;;;5.97;3.35;;;8.80;95.90;;;;;;5024436;28;20214;-90
2023/11/16 16:05:25;;;;;;;7.43;3.17;;;8.60;96.20;;;;;;5038786;28;20195;-93
2023/11/16 16:07:53;;;;;;;8.57;2.88;;;8.50;96.40;;;;;;5042417;28;20202;-93
2023/11/16 16:10:40;;;;;;;5.88;3.10;;;8.30;96.10;;;;;;4994264;28;20208;-92
2023/11/16 16:13:07;;;;;;;5.90;2.53;;;8.30;96.20;;;;;;5016224;28;20285;-90
2023/11/16 16:15:34;;;;;;;6.93;2.78;;;8.30;96.00;;;;;;5027685;28;20201;-90
2023/11/16 16:20:52;;;;;;;7.63;3.15;;;8.40;95.80;;;;;;5021766;28;20277;-91
2023/11/16 16:23:20;;;;;;;4.40;3.13;;;8.50;95.80;;;;;;5015653;28;20195;-91
2023/11/16 16:25:47;;;;;;;5.53;2.80;;;8.50;95.80;;;;;;5028187;28;20202;-91
2023/11/16 16:28:14;;;;;;;7.53;2.70;;;8.40;95.80;;;;;;5002447;28;20284;-90
2023/11/16 16:30:41;;;;;;;6.47;3.50;;;8.30;96.30;;;;;;5022683;28;20199;-91
2023/11/16 16:33:10;;;;;;;5.90;2.72;;;8.20;96.60;;;;;;5031399;28;20207;-91
2023/11/16 16:35:38;;;;;;;5.05;2.50;;;8.30;95.80;;;;;;5029314;28;20202;-91
2023/11/16 16:38:06;;;;;;;3.90;2.25;;;8.20;95.70;;;;;;5020421;28;20435;-90
2023/11/16 16:40:33;;;;;;;4.68;2.40;;;8.10;95.70;;;;;;5030519;28;20219;-91
2023/11/16 16:43:00;;;;;;;8.93;2.83;;;8.20;95.70;;;;;;5032013;28;20215;-92
2023/11/16 16:45:27;;;;;;;5.53;3.20;;;8.20;95.70;;;;;;5025608;28;20207;-91
2023/11/16 16:47:58;;;;;;;4.47;2.97;;;8.20;95.20;;;;;;5021232;28;20203;-91